createdAt,value
2022-08-31T00:03:57.392Z,25.55
2022-08-31T00:08:56.650Z,25.54
2022-08-31T00:13:56.029Z,25.51
2022-08-31T00:18:54.631Z,25.55
2022-08-31T00:23:53.189Z,25.45
2022-08-31T00:28:53.318Z,25.38
2022-08-31T00:33:52.713Z,25.22
2022-08-31T00:38:52.024Z,25.05
2022-08-31T00:43:54.417Z,24.92
2022-08-31T00:48:59.606Z,24.79
2022-08-31T00:53:58.371Z,24.79
2022-08-31T00:58:58.162Z,24.99
2022-08-31T01:03:56.328Z,25.05
2022-08-31T01:08:56.898Z,25.06
2022-08-31T01:13:55.557Z,25.13
2022-08-31T01:18:58.265Z,25.14
2022-08-31T01:24:01.227Z,25.05
2022-08-31T01:29:04.988Z,25.05
2022-08-31T01:34:03.254Z,25.02
2022-08-31T01:39:03.034Z,24.97
2022-08-31T01:44:01.161Z,24.96
2022-08-31T01:49:00.877Z,24.87
2022-08-31T01:53:59.025Z,24.86
2022-08-31T01:58:59.234Z,24.76
2022-08-31T02:04:04.215Z,24.65
2022-08-31T02:09:03.592Z,24.70
2022-08-31T02:14:03.325Z,24.59
2022-08-31T02:19:01.659Z,24.54
2022-08-31T02:23:59.982Z,24.60
2022-08-31T02:28:58.073Z,24.62
2022-08-31T02:33:57.662Z,24.60
2022-08-31T02:38:55.954Z,24.64
2022-08-31T02:43:54.269Z,24.60
2022-08-31T02:48:53.001Z,24.53
2022-08-31T02:53:54.007Z,24.54
2022-08-31T02:58:55.186Z,24.46
2022-08-31T03:03:55.191Z,24.38
2022-08-31T03:08:55.131Z,24.40
2022-08-31T03:13:58.484Z,24.30
2022-08-31T03:18:57.077Z,24.19
2022-08-31T03:23:56.652Z,24.13
2022-08-31T03:28:55.979Z,24.16
2022-08-31T03:34:15.958Z,24.02
2022-08-31T03:39:16.072Z,24.06
2022-08-31T03:44:14.698Z,23.90
2022-08-31T03:49:18.485Z,24.11
2022-08-31T03:54:33.070Z,24.28
2022-08-31T03:59:31.227Z,24.35
2022-08-31T04:05:01.826Z,24.23
2022-08-31T04:10:24.329Z,24.21
2022-08-31T04:15:41.191Z,24.09
2022-08-31T04:20:57.849Z,24.11
2022-08-31T04:25:58.441Z,24.00
2022-08-31T04:30:57.335Z,23.89
2022-08-31T04:35:55.480Z,23.80
2022-08-31T04:40:53.771Z,23.80
2022-08-31T04:45:53.381Z,23.82
2022-08-31T04:50:52.706Z,23.91
2022-08-31T04:55:50.796Z,23.77
2022-08-31T05:00:49.769Z,23.97
2022-08-31T05:06:17.046Z,24.00
2022-08-31T05:11:19.030Z,24.02
2022-08-31T05:16:22.488Z,23.79
2022-08-31T05:21:28.323Z,23.71
2022-08-31T05:26:28.311Z,23.92
2022-08-31T05:31:30.127Z,23.94
2022-08-31T05:36:31.694Z,24.06
2022-08-31T05:41:31.088Z,24.05
2022-08-31T05:46:30.218Z,24.47
2022-08-31T05:51:28.904Z,24.61
2022-08-31T05:56:29.415Z,24.96
2022-08-31T06:01:31.323Z,24.72
2022-08-31T06:06:45.758Z,25.33
2022-08-31T06:11:48.034Z,25.42
2022-08-31T06:16:48.234Z,25.78
2022-08-31T06:21:51.028Z,25.96
2022-08-31T06:27:10.319Z,26.53
2022-08-31T06:32:11.070Z,27.51
2022-08-31T06:37:19.067Z,28.79
2022-08-31T06:42:41.753Z,28.99
2022-08-31T06:48:01.323Z,29.72
2022-08-31T06:52:59.811Z,30.38
2022-08-31T06:58:35.123Z,30.70
2022-08-31T07:03:58.169Z,31.12
2022-08-31T07:08:58.948Z,31.14
2022-08-31T07:13:59.843Z,31.35
2022-08-31T07:19:01.776Z,31.63
2022-08-31T07:24:02.596Z,31.90
2022-08-31T07:29:05.172Z,32.07
2022-08-31T07:34:08.249Z,32.28
2022-08-31T07:39:32.378Z,32.28
2022-08-31T07:44:34.636Z,33.11
2022-08-31T07:49:35.502Z,33.17
2022-08-31T07:54:39.961Z,34.18
2022-08-31T08:00:10.474Z,34.50
2022-08-31T08:05:21.171Z,34.62
2022-08-31T08:10:52.577Z,34.44
2022-08-31T08:16:15.426Z,35.08
2022-08-31T08:21:22.702Z,34.93
2022-08-31T08:26:22.404Z,35.17
2022-08-31T08:31:40.915Z,35.59
2022-08-31T08:36:40.754Z,35.40
2022-08-31T08:41:42.961Z,35.72
2022-08-31T08:46:48.095Z,35.80
2022-08-31T08:51:50.222Z,35.90
2022-08-31T08:56:49.783Z,36.19
2022-08-31T09:01:56.425Z,36.58
2022-08-31T09:07:12.029Z,36.80
2022-08-31T09:12:26.356Z,37.76
2022-08-31T09:17:41.401Z,38.46
2022-08-31T09:22:47.167Z,38.57
2022-08-31T09:27:57.575Z,39.17
2022-08-31T09:32:58.905Z,39.41
2022-08-31T09:38:02.511Z,39.84
2022-08-31T09:43:07.100Z,39.16
2022-08-31T09:48:09.169Z,38.88
2022-08-31T09:53:31.417Z,38.94
2022-08-31T09:58:31.028Z,38.45
2022-08-31T10:03:31.789Z,39.53
2022-08-31T10:08:42.283Z,40.17
2022-08-31T10:13:43.390Z,40.43
2022-08-31T10:18:56.216Z,40.28
2022-08-31T10:24:03.277Z,40.31
2022-08-31T10:29:06.081Z,40.01
2022-08-31T10:34:29.154Z,40.65
2022-08-31T10:39:34.147Z,40.68
2022-08-31T10:44:42.341Z,40.94
2022-08-31T10:49:57.780Z,40.50
2022-08-31T10:55:06.744Z,39.68
2022-08-31T11:00:08.995Z,40.07
2022-08-31T11:05:23.033Z,40.16
2022-08-31T11:10:33.337Z,40.66
2022-08-31T11:15:57.156Z,40.18
2022-08-31T11:21:17.354Z,39.65
2022-08-31T11:26:52.879Z,40.02
2022-08-31T11:31:55.205Z,40.02
2022-08-31T11:36:56.769Z,40.21
2022-08-31T11:41:55.734Z,40.06
2022-08-31T11:47:06.986Z,39.99
2022-08-31T11:52:10.522Z,39.21
2022-08-31T11:57:11.305Z,39.39
2022-08-31T12:02:44.433Z,40.00
2022-08-31T12:07:48.387Z,39.69
2022-08-31T12:13:18.903Z,40.21
2022-08-31T12:18:31.121Z,40.66
2022-08-31T12:23:40.041Z,40.92
2022-08-31T12:28:56.286Z,40.74
2022-08-31T12:34:00.848Z,40.83
2022-08-31T12:39:10.199Z,40.35
2022-08-31T12:44:14.274Z,40.21
2022-08-31T12:49:31.496Z,39.84
2022-08-31T12:54:58.528Z,39.51
2022-08-31T13:00:04.495Z,39.40
2022-08-31T13:05:03.513Z,39.19
2022-08-31T13:10:11.656Z,38.16
2022-08-31T13:15:13.586Z,38.76
2022-08-31T13:20:19.820Z,39.07
2022-08-31T13:25:35.930Z,38.84
2022-08-31T13:30:39.739Z,38.78
2022-08-31T13:35:39.719Z,38.67
2022-08-31T13:40:42.117Z,38.61
2022-08-31T13:45:53.181Z,38.48
2022-08-31T13:50:59.298Z,38.30
2022-08-31T13:55:59.028Z,38.05
2022-08-31T14:01:19.181Z,37.52
2022-08-31T14:06:24.181Z,36.98
2022-08-31T14:11:28.527Z,36.78
2022-08-31T14:16:35.770Z,36.69
2022-08-31T14:21:36.040Z,36.44
2022-08-31T14:26:41.617Z,36.08
2022-08-31T14:31:45.059Z,36.49
2022-08-31T14:36:50.445Z,36.42
2022-08-31T14:41:50.345Z,36.27
2022-08-31T14:46:48.594Z,36.13
2022-08-31T14:51:47.349Z,35.82
2022-08-31T14:56:54.569Z,35.89
2022-08-31T15:01:57.931Z,35.48
2022-08-31T15:07:09.911Z,34.80
2022-08-31T15:12:14.716Z,34.76
2022-08-31T15:17:19.962Z,34.72
2022-08-31T15:22:19.065Z,34.57
2022-08-31T15:27:18.989Z,34.43
2022-08-31T15:32:18.653Z,34.29
2022-08-31T15:37:17.899Z,33.94
2022-08-31T15:42:20.888Z,33.70
2022-08-31T15:47:36.798Z,33.69
2022-08-31T15:52:36.929Z,33.74
2022-08-31T15:57:36.883Z,33.59
2022-08-31T16:02:36.201Z,33.34
2022-08-31T16:07:35.160Z,33.31
2022-08-31T16:12:35.095Z,32.98
2022-08-31T16:17:34.726Z,32.85
2022-08-31T16:22:33.101Z,32.67
2022-08-31T16:27:31.334Z,32.40
2022-08-31T16:32:30.458Z,32.18
2022-08-31T16:37:30.137Z,31.95
2022-08-31T16:42:28.610Z,31.84
2022-08-31T16:47:26.885Z,31.79
2022-08-31T16:52:27.428Z,31.64
2022-08-31T16:57:28.823Z,31.71
2022-08-31T17:02:28.115Z,31.41
2022-08-31T17:07:26.437Z,31.24
2022-08-31T17:12:27.405Z,31.21
2022-08-31T17:17:27.789Z,31.11
2022-08-31T17:22:32.423Z,30.87
2022-08-31T17:27:35.145Z,30.73
2022-08-31T17:32:34.982Z,30.47
2022-08-31T17:37:36.520Z,30.20
2022-08-31T17:42:36.764Z,30.27
2022-08-31T17:47:36.124Z,30.05
2022-08-31T17:52:34.932Z,29.90
2022-08-31T17:57:33.391Z,29.88
2022-08-31T18:02:35.061Z,29.58
2022-08-31T18:07:33.342Z,29.64
2022-08-31T18:12:31.546Z,29.55
2022-08-31T18:17:30.194Z,29.32
2022-08-31T18:22:30.279Z,28.92
2022-08-31T18:27:29.325Z,28.77
2022-08-31T18:32:36.276Z,28.82
2022-08-31T18:37:36.034Z,28.44
2022-08-31T18:42:51.778Z,28.50
2022-08-31T18:53:29.030Z,28.36
2022-08-31T18:58:28.891Z,28.52
2022-08-31T19:03:28.374Z,28.28
2022-08-31T19:08:28.475Z,28.05
2022-08-31T19:13:30.458Z,28.05
2022-08-31T19:18:28.702Z,27.87
2022-08-31T19:23:28.538Z,27.86
2022-08-31T19:28:26.861Z,27.97
2022-08-31T19:33:26.184Z,27.94
2022-08-31T19:38:24.942Z,27.66
2022-08-31T19:48:44.353Z,27.55
2022-08-31T19:53:45.124Z,27.64
2022-08-31T19:58:47.099Z,27.41
2022-08-31T20:03:46.040Z,27.38
2022-08-31T20:08:45.911Z,27.14
2022-08-31T20:13:45.564Z,27.06
2022-08-31T20:18:47.029Z,27.06
2022-08-31T20:23:47.865Z,27.02
2022-08-31T20:28:47.479Z,26.72
2022-08-31T20:33:46.994Z,26.69
2022-08-31T20:38:45.199Z,26.25
2022-08-31T20:43:46.096Z,26.14
2022-08-31T20:49:03.258Z,26.33
2022-08-31T20:54:01.479Z,26.24
2022-08-31T20:59:00.265Z,26.07
2022-08-31T21:03:59.795Z,26.00
2022-08-31T21:08:57.905Z,25.83
2022-08-31T21:13:56.910Z,25.76
2022-08-31T21:18:55.074Z,25.68
2022-08-31T21:23:54.597Z,25.50
2022-08-31T21:28:54.290Z,25.41
2022-08-31T21:33:54.262Z,25.36
2022-08-31T21:38:55.022Z,25.07
2022-08-31T21:43:53.246Z,25.00
2022-08-31T21:48:54.030Z,24.96
2022-08-31T21:53:55.702Z,24.88
2022-08-31T21:58:54.035Z,24.89
2022-08-31T22:03:56.194Z,24.76
2022-08-31T22:09:00.596Z,24.66
2022-08-31T22:13:59.945Z,24.30
2022-08-31T22:19:01.296Z,24.46
2022-08-31T22:24:04.804Z,24.44
2022-08-31T22:29:03.234Z,24.21
2022-08-31T22:34:01.627Z,24.22
2022-08-31T22:39:03.515Z,24.06
2022-08-31T22:44:02.227Z,23.97
2022-08-31T22:49:01.051Z,24.26
2022-08-31T22:53:59.803Z,24.14
2022-08-31T22:59:02.636Z,24.41
2022-08-31T23:04:06.938Z,24.56
2022-08-31T23:09:07.904Z,24.51
2022-08-31T23:14:10.477Z,24.73
2022-08-31T23:19:12.572Z,24.46
2022-08-31T23:24:12.896Z,24.72
2022-08-31T23:29:13.691Z,24.46
2022-08-31T23:34:13.207Z,24.46
2022-08-31T23:39:11.620Z,24.67
2022-08-31T23:44:13.325Z,24.56
2022-08-31T23:49:15.484Z,24.42
2022-08-31T23:54:16.552Z,24.54
2022-08-31T23:59:19.172Z,24.55
